This is the latest recevied weather packets stored in our database for station/object SV2ASS-2. If no packets are shown the sender has not sent any weather packets the latest 10 day(s).
| Time | Temp. | Humidity | Pressure | Rain* | Wind** | Luminosity | Snow |
|---|---|---|---|---|---|---|---|
| 1777662767 | 9.44° C | 67% | 1026 hPa | - | - | - | - |
| 1777661867 | 10° C | 66% | 1025.9 hPa | - | - | - | - |
| 1777660066 | 10° C | 66% | 1025.7 hPa | - | - | - | - |
| 1777655566 | 11.11° C | 60% | 1025.1 hPa | - | - | - | - |
| 1777652865 | 12.22° C | 63% | 1024.7 hPa | - | - | - | - |
| 1777651965 | 12.22° C | 63% | 1024.4 hPa | - | - | - | - |
| 1777651065 | 12.78° C | 61% | 1024.3 hPa | - | - | - | - |
| 1777650165 | 12.78° C | 59% | 1024.3 hPa | - | - | - | - |
| 1777649265 | 13.33° C | 56% | 1024.2 hPa | - | - | - | - |
| 1777648364 | 13.33° C | 56% | 1024.4 hPa | - | - | - | - |
| 1777647467 | 13.33° C | 55% | 1024.3 hPa | - | - | - | - |
| 1777646567 | 13.33° C | 53% | 1024.4 hPa | - | - | - | - |
| 1777645666 | 13.33° C | 59% | 1024.4 hPa | - | - | - | - |
| 1777644766 | 13.33° C | 56% | 1024.4 hPa | - | - | - | - |
| 1777643866 | 13.33° C | 54% | 1024.4 hPa | - | - | - | - |
| 1777642066 | 13.33° C | 56% | 1024.5 hPa | - | - | - | - |
| 1777641166 | 12.78° C | 56% | 1024.7 hPa | - | - | - | - |
| 1777637565 | 12.22° C | 64% | 1025.2 hPa | - | - | - | - |
| 1777636665 | 12.22° C | 63% | 1025.3 hPa | - | - | - | - |
| 1777635765 | 12.22° C | 64% | 1025.4 hPa | - | - | - | - |
| 1777634865 | 13.89° C | 60% | 1025.4 hPa | - | - | - | - |
| 1777633965 | 11.67° C | 66% | 1025.4 hPa | - | - | - | - |
| 1777633064 | 11.67° C | 63% | 1025.3 hPa | - | - | - | - |
| 1777632164 | 11.67° C | 66% | 1025.4 hPa | - | - | - | - |
| 1777631264 | 11.11° C | 67% | 1025.4 hPa | - | - | - | - |
* Rain since midnight (hover to see other rain measurements)
** Current wind speed in m/s (hover to see current wind gust speed)